グアテマラシティ の空港の天気 - METARとTAF

ラ・アウロラ国際空港 ( MGGT / GUA ) - グアテマラ グアテマラシティ
飛行場実況気象(Metar)
観測時間09/22 11:00 CST (09/22 17:00 UTC)
風向・風速北北東 6m/s
視程10km以上
天気現象
少しの雲 雲底高度 610m
気温24℃
湿度61%
気圧1026hPa
METARMGGT 221700Z 03012KT 9999 FEW020 24/16 Q1026 A3030
過去の天気等 Google飛行場航空写真 Wunderground天気予報

過去48時間のMETAR

飛行場予報(TAF)
発表時間: 9/22 11:00 CST (9/22 17:00 UTC)
予報対象時間: 22日12時 CST ~ 23日12時 CST
風向・風速北北東 6m/s
視程10km以上
少しの雲 雲底高度 550m
22日16時 CST ~ 22日20時 CST に 確率 30% で一時的に
視程8000m
天気現象周辺で雷雨
少しの積乱雲 雲底高度 760m
22日21時 CST ~ 22日23時 CST に徐々に
風向・風速北 4m/s
全天の8割程度の雲 雲底高度 490m
23日8時 CST ~ 23日10時 CST に徐々に
少しの雲 雲底高度 550m
MGGT 221700Z 2218/2318 02012KT 9999 FEW018 TX28/2220Z TN16/2312Z
PROB30 TEMPO 2222/2302 8000 VCTSRA FEW025CB
BECMG 2303/2305 36008KT BKN016
BECMG 2314/2316 FEW018